Time;durP1;ratioP1;P1;durP2;ratioP2;P2;SDS_P1;SDS_P2;PMS_P1;PMS_P2;Temp;Humidity;BMP_temperature;BMP_pressure;BME280_temperature;BME280_humidity;BME280_pressure;Samples;Min_cycle;Max_cycle;Signal;HPM_P1;HPM_P2
2022/03/12 00:00:26;;;;;;;10.43;6.18;;;;;;;;;;5026215;28;20452;-57
2022/03/12 00:02:52;;;;;;;11.77;6.03;;;;;;;;;;5022501;28;20029;-56
2022/03/12 00:05:18;;;;;;;9.68;5.70;;;;;;;;;;5025194;28;20037;-57
2022/03/12 00:07:46;;;;;;;7.40;5.25;;;;;;;;;;5027563;28;20032;-57
2022/03/12 00:10:18;;;;;;;7.88;5.82;;;;;;;;;;5027559;28;20484;-57
2022/03/12 00:12:44;;;;;;;7.22;5.35;;;;;;;;;;5023711;28;20662;-57
2022/03/12 00:15:12;;;;;;;9.80;5.57;;;;;;;;;;5023076;28;20033;-57
2022/03/12 00:17:45;;;;;;;8.20;5.65;;;;;;;;;;5023520;28;20439;-57
2022/03/12 00:20:12;;;;;;;10.13;5.60;;;;;;;;;;5026529;28;20034;-56
2022/03/12 00:22:41;;;;;;;10.00;5.90;;;;;;;;;;5025591;28;20029;-56
2022/03/12 00:25:11;;;;;;;7.65;5.70;;;;;;;;;;5020525;28;20060;-56
2022/03/12 00:27:39;;;;;;;10.65;5.88;;;;;;;;;;5018049;28;20021;-57
2022/03/12 00:30:06;;;;;;;11.10;5.93;;;;;;;;;;5026602;28;20013;-57
2022/03/12 00:32:35;;;;;;;12.82;5.60;;;;;;;;;;5021525;28;20116;-57
2022/03/12 00:35:01;;;;;;;11.52;5.68;;;;;;;;;;5021522;28;20423;-57
2022/03/12 00:37:27;;;;;;;9.88;5.78;;;;;;;;;;5025459;28;20025;-57
2022/03/12 00:39:53;;;;;;;8.43;5.97;;;;;;;;;;5022447;28;20039;-57
2022/03/12 00:42:19;;;;;;;8.15;5.55;;;;;;;;;;5025074;28;20060;-58
2022/03/12 00:44:45;;;;;;;10.35;5.53;;;;;;;;;;5028258;28;20033;-58
2022/03/12 00:47:11;;;;;;;10.35;5.75;;;;;;;;;;5027735;28;20539;-57
2022/03/12 00:49:37;;;;;;;8.80;5.85;;;;;;;;;;5027222;28;20045;-57
2022/03/12 00:52:03;;;;;;;11.43;5.97;;;;;;;;;;5032679;28;20067;-57
2022/03/12 00:54:29;;;;;;;8.50;6.10;;;;;;;;;;5026395;28;20176;-56
2022/03/12 00:56:55;;;;;;;12.02;6.38;;;;;;;;;;5026758;28;20072;-57
2022/03/12 00:59:21;;;;;;;8.82;5.68;;;;;;;;;;5026793;28;20136;-56
2022/03/12 01:01:47;;;;;;;8.60;6.07;;;;;;;;;;5033948;28;20377;-57
2022/03/12 01:04:14;;;;;;;8.00;5.68;;;;;;;;;;5031531;28;20038;-57
2022/03/12 01:06:42;;;;;;;14.88;5.78;;;;;;;;;;5029577;28;20024;-57
2022/03/12 01:09:10;;;;;;;10.65;5.43;;;;;;;;;;5037089;28;20028;-57
2022/03/12 01:11:36;;;;;;;9.00;5.97;;;;;;;;;;5027559;28;20121;-57
2022/03/12 01:14:02;;;;;;;9.45;6.30;;;;;;;;;;5035082;28;20032;-56
2022/03/12 01:16:28;;;;;;;8.30;5.75;;;;;;;;;;5026919;28;20041;-56
2022/03/12 01:18:54;;;;;;;10.30;5.75;;;;;;;;;;5026961;28;20408;-58
2022/03/12 01:21:20;;;;;;;8.57;5.50;;;;;;;;;;5021857;28;20025;-58
2022/03/12 01:23:49;;;;;;;7.95;6.13;;;;;;;;;;5027776;28;20033;-57
2022/03/12 01:26:16;;;;;;;13.23;6.40;;;;;;;;;;5032124;28;20818;-57
2022/03/12 01:28:42;;;;;;;14.38;6.07;;;;;;;;;;5029716;28;20053;-57
2022/03/12 01:31:08;;;;;;;9.30;6.00;;;;;;;;;;5030520;28;20063;-57
2022/03/12 01:33:35;;;;;;;8.00;5.90;;;;;;;;;;5029326;28;20064;-57
2022/03/12 01:36:01;;;;;;;12.18;6.35;;;;;;;;;;5029856;28;20033;-58
2022/03/12 01:38:29;;;;;;;10.05;6.20;;;;;;;;;;5026077;28;20033;-57
2022/03/12 01:40:55;;;;;;;9.63;6.20;;;;;;;;;;5025446;28;20025;-58
2022/03/12 01:43:22;;;;;;;10.32;6.30;;;;;;;;;;5030385;28;20044;-56
2022/03/12 01:45:48;;;;;;;11.70;6.57;;;;;;;;;;5028315;28;20037;-57
2022/03/12 01:48:14;;;;;;;11.55;6.53;;;;;;;;;;5030545;28;20033;-57
2022/03/12 01:50:40;;;;;;;9.73;6.43;;;;;;;;;;5030298;28;20025;-57
2022/03/12 01:53:08;;;;;;;12.00;6.60;;;;;;;;;;5028818;28;20037;-57
2022/03/12 01:55:35;;;;;;;12.82;6.50;;;;;;;;;;5025290;28;20037;-58
2022/03/12 01:58:02;;;;;;;9.30;5.90;;;;;;;;;;5031089;28;20520;-57
2022/03/12 02:00:29;;;;;;;8.20;6.22;;;;;;;;;;5027556;28;20024;-57
2022/03/12 02:02:56;;;;;;;10.23;6.57;;;;;;;;;;5025932;28;20033;-57
2022/03/12 02:05:27;;;;;;;10.52;6.15;;;;;;;;;;5026437;28;20026;-57
2022/03/12 02:07:54;;;;;;;11.35;6.80;;;;;;;;;;5030790;28;20047;-57
2022/03/12 02:10:20;;;;;;;15.57;6.18;;;;;;;;;;5027776;28;20029;-58
2022/03/12 02:12:46;;;;;;;10.65;6.63;;;;;;;;;;5027910;28;20029;-57
2022/03/12 02:15:12;;;;;;;11.73;6.80;;;;;;;;;;5025749;28;20040;-56
2022/03/12 02:17:38;;;;;;;11.98;6.30;;;;;;;;;;5024393;28;20106;-59
2022/03/12 02:20:06;;;;;;;11.35;7.18;;;;;;;;;;5029103;28;20365;-58
2022/03/12 02:22:32;;;;;;;12.27;6.47;;;;;;;;;;5025307;28;20420;-58
2022/03/12 02:24:58;;;;;;;10.95;6.47;;;;;;;;;;5025967;28;20068;-56
2022/03/12 02:27:25;;;;;;;12.60;6.30;;;;;;;;;;5029442;28;20139;-57
2022/03/12 02:29:52;;;;;;;11.00;6.63;;;;;;;;;;5025256;28;20101;-56
2022/03/12 02:32:18;;;;;;;10.20;7.03;;;;;;;;;;5031708;28;20036;-58
2022/03/12 02:34:48;;;;;;;10.38;6.22;;;;;;;;;;5029898;28;20032;-57
2022/03/12 02:37:29;;;;;;;10.88;6.93;;;;;;;;;;5037427;28;20024;-57
2022/03/12 02:39:55;;;;;;;11.13;6.60;;;;;;;;;;5029548;28;20087;-57
2022/03/12 02:42:23;;;;;;;11.85;7.07;;;;;;;;;;5032567;28;20026;-56
2022/03/12 02:44:54;;;;;;;10.25;7.28;;;;;;;;;;5033065;28;20037;-57
2022/03/12 02:47:22;;;;;;;11.85;6.60;;;;;;;;;;5030001;28;20021;-58
2022/03/12 02:49:48;;;;;;;13.55;7.07;;;;;;;;;;5026015;28;20070;-56
2022/03/12 02:52:14;;;;;;;14.27;7.05;;;;;;;;;;5032511;28;20029;-58
2022/03/12 02:54:41;;;;;;;10.68;7.20;;;;;;;;;;5031747;28;20489;-58
2022/03/12 02:57:07;;;;;;;15.82;7.20;;;;;;;;;;5032249;28;20578;-58
2022/03/12 02:59:33;;;;;;;10.85;7.03;;;;;;;;;;5025981;28;20018;-58
2022/03/12 03:02:03;;;;;;;10.75;7.28;;;;;;;;;;5028287;28;20120;-58
2022/03/12 03:04:31;;;;;;;10.85;7.72;;;;;;;;;;5032260;28;20013;-58
2022/03/12 03:07:00;;;;;;;13.57;7.25;;;;;;;;;;5027963;28;21572;-58
2022/03/12 03:09:26;;;;;;;10.35;7.20;;;;;;;;;;5024463;28;20014;-58
2022/03/12 03:11:53;;;;;;;11.15;7.05;;;;;;;;;;5028229;28;20101;-57
2022/03/12 03:14:26;;;;;;;14.43;7.10;;;;;;;;;;5024385;28;20033;-57
2022/03/12 03:16:53;;;;;;;10.38;6.95;;;;;;;;;;5029363;28;20033;-58
2022/03/12 03:19:19;;;;;;;11.60;6.80;;;;;;;;;;5026911;28;20495;-57
2022/03/12 03:21:45;;;;;;;11.32;6.88;;;;;;;;;;5024511;28;20384;-57
2022/03/12 03:24:11;;;;;;;14.65;7.30;;;;;;;;;;5025943;28;20029;-58
2022/03/12 03:26:40;;;;;;;11.10;7.07;;;;;;;;;;5033354;28;20142;-56
2022/03/12 03:29:06;;;;;;;10.82;6.88;;;;;;;;;;5024718;28;20049;-57
2022/03/12 03:31:32;;;;;;;12.07;7.50;;;;;;;;;;5027209;28;20112;-58
2022/03/12 03:33:58;;;;;;;13.95;7.60;;;;;;;;;;5024552;28;20124;-58
2022/03/12 03:36:24;;;;;;;10.80;7.43;;;;;;;;;;5034178;28;20040;-58
2022/03/12 03:38:50;;;;;;;13.95;7.57;;;;;;;;;;5030032;28;20037;-58
2022/03/12 03:41:17;;;;;;;15.98;7.22;;;;;;;;;;5024648;28;20353;-57
2022/03/12 03:43:47;;;;;;;12.18;7.07;;;;;;;;;;5027264;28;20029;-56
2022/03/12 03:46:17;;;;;;;11.38;7.22;;;;;;;;;;5024912;28;20103;-57
2022/03/12 03:48:46;;;;;;;11.50;7.47;;;;;;;;;;5023975;28;20789;-58
2022/03/12 03:51:12;;;;;;;11.38;7.55;;;;;;;;;;5024421;28;20037;-57
2022/03/12 03:53:38;;;;;;;12.18;7.28;;;;;;;;;;5027675;28;20528;-58
2022/03/12 03:56:04;;;;;;;14.23;7.25;;;;;;;;;;5030136;28;20041;-58
2022/03/12 03:58:32;;;;;;;11.98;7.20;;;;;;;;;;5027689;28;20056;-56
2022/03/12 04:00:59;;;;;;;12.27;7.45;;;;;;;;;;5022833;28;20061;-57
2022/03/12 04:03:26;;;;;;;10.40;6.93;;;;;;;;;;5026897;28;20116;-57
2022/03/12 04:05:52;;;;;;;15.77;7.63;;;;;;;;;;5029024;28;20472;-57
2022/03/12 04:08:21;;;;;;;11.60;7.18;;;;;;;;;;5030932;28;20555;-56
2022/03/12 04:10:47;;;;;;;10.05;6.95;;;;;;;;;;5022919;28;20366;-57
2022/03/12 04:13:15;;;;;;;10.50;7.28;;;;;;;;;;5027049;28;20047;-56
2022/03/12 04:15:41;;;;;;;11.88;6.65;;;;;;;;;;5025995;28;20432;-58
2022/03/12 04:18:07;;;;;;;16.55;7.65;;;;;;;;;;5020103;28;20630;-56
2022/03/12 04:20:34;;;;;;;10.82;7.13;;;;;;;;;;5030365;28;20040;-58
2022/03/12 04:23:00;;;;;;;14.35;7.13;;;;;;;;;;5023676;28;20029;-56
2022/03/12 04:25:31;;;;;;;12.40;7.18;;;;;;;;;;5023895;28;20022;-57
2022/03/12 04:27:57;;;;;;;12.98;7.40;;;;;;;;;;5027781;28;20037;-57
2022/03/12 04:30:23;;;;;;;10.02;6.47;;;;;;;;;;5027465;28;20035;-57
2022/03/12 04:32:49;;;;;;;11.07;7.50;;;;;;;;;;5025295;28;20076;-57
2022/03/12 04:35:17;;;;;;;11.40;7.20;;;;;;;;;;5036145;28;20109;-57
2022/03/12 04:37:43;;;;;;;11.93;7.28;;;;;;;;;;5027252;28;20031;-58
2022/03/12 04:40:13;;;;;;;14.02;7.10;;;;;;;;;;5025402;28;20025;-57
2022/03/12 04:42:42;;;;;;;11.45;6.72;;;;;;;;;;5026238;28;20112;-57
2022/03/12 04:45:09;;;;;;;10.30;7.20;;;;;;;;;;5027129;28;20460;-56
2022/03/12 04:47:35;;;;;;;12.45;7.35;;;;;;;;;;5029825;28;20032;-56
2022/03/12 04:50:02;;;;;;;13.35;7.53;;;;;;;;;;5030331;28;20034;-56
2022/03/12 04:52:29;;;;;;;14.48;7.68;;;;;;;;;;5025165;28;20053;-57
2022/03/12 04:54:56;;;;;;;12.35;7.35;;;;;;;;;;5028231;28;20027;-57
2022/03/12 04:57:22;;;;;;;15.70;7.57;;;;;;;;;;5027326;28;20021;-57
2022/03/12 04:59:48;;;;;;;11.57;6.95;;;;;;;;;;5026267;28;20033;-58
2022/03/12 05:02:14;;;;;;;15.75;7.47;;;;;;;;;;5025078;28;20112;-58
2022/03/12 05:04:40;;;;;;;11.15;7.63;;;;;;;;;;5028673;28;20125;-57
2022/03/12 05:07:07;;;;;;;12.63;7.43;;;;;;;;;;5026547;28;20128;-56
2022/03/12 05:09:33;;;;;;;14.32;7.43;;;;;;;;;;5026002;28;20028;-58
2022/03/12 05:12:01;;;;;;;11.77;8.10;;;;;;;;;;5022421;28;20034;-57
2022/03/12 05:14:27;;;;;;;12.80;7.60;;;;;;;;;;5024533;28;20029;-57
2022/03/12 05:16:53;;;;;;;11.75;7.72;;;;;;;;;;5024834;28;20112;-58
2022/03/12 05:19:20;;;;;;;12.20;8.10;;;;;;;;;;5024965;28;20104;-57
2022/03/12 05:21:46;;;;;;;10.88;7.68;;;;;;;;;;5026967;28;20108;-57
2022/03/12 05:24:13;;;;;;;11.80;7.43;;;;;;;;;;5025645;28;20112;-58
2022/03/12 05:26:39;;;;;;;9.43;7.47;;;;;;;;;;5028963;28;20540;-58
2022/03/12 05:29:05;;;;;;;13.27;7.45;;;;;;;;;;5029763;28;20487;-57
2022/03/12 05:31:31;;;;;;;10.60;7.18;;;;;;;;;;5025853;28;20026;-57
2022/03/12 05:33:57;;;;;;;11.68;6.97;;;;;;;;;;5026003;28;20033;-56
2022/03/12 05:36:23;;;;;;;11.38;7.60;;;;;;;;;;5028599;28;20029;-57
2022/03/12 05:38:49;;;;;;;16.05;7.70;;;;;;;;;;5034202;28;20455;-57
2022/03/12 05:41:15;;;;;;;14.00;8.23;;;;;;;;;;5025160;28;20022;-58
2022/03/12 05:43:44;;;;;;;11.90;7.85;;;;;;;;;;5031406;28;20377;-57
2022/03/12 05:46:11;;;;;;;12.95;8.50;;;;;;;;;;5022363;28;20041;-57
2022/03/12 05:48:37;;;;;;;15.07;7.68;;;;;;;;;;5028454;28;20403;-57
2022/03/12 05:51:08;;;;;;;10.75;7.60;;;;;;;;;;5035060;28;20542;-57
2022/03/12 05:53:36;;;;;;;11.68;7.43;;;;;;;;;;5030921;28;20404;-57
2022/03/12 05:56:03;;;;;;;12.27;7.85;;;;;;;;;;5029079;28;20545;-57
2022/03/12 05:58:35;;;;;;;10.52;7.78;;;;;;;;;;5023706;28;20485;-57
2022/03/12 06:01:01;;;;;;;11.93;7.47;;;;;;;;;;5024489;28;20017;-58
2022/03/12 06:03:27;;;;;;;15.30;7.63;;;;;;;;;;5028678;28;20032;-57
2022/03/12 06:05:58;;;;;;;16.17;8.00;;;;;;;;;;5034395;28;20037;-57
2022/03/12 06:08:25;;;;;;;11.63;8.13;;;;;;;;;;5030664;28;20033;-58
2022/03/12 06:10:52;;;;;;;12.13;7.85;;;;;;;;;;5034862;28;20032;-58
2022/03/12 06:13:18;;;;;;;11.18;7.78;;;;;;;;;;5026099;28;20040;-57
2022/03/12 06:15:48;;;;;;;11.55;7.70;;;;;;;;;;5031922;28;20033;-58
2022/03/12 06:18:15;;;;;;;11.82;8.23;;;;;;;;;;5031524;28;20025;-57
2022/03/12 06:20:42;;;;;;;13.32;7.78;;;;;;;;;;5029352;28;20549;-57
2022/03/12 06:23:08;;;;;;;12.98;8.18;;;;;;;;;;5028057;28;20029;-58
2022/03/12 06:25:34;;;;;;;16.60;8.52;;;;;;;;;;5029671;28;20400;-58
2022/03/12 06:28:02;;;;;;;15.52;8.35;;;;;;;;;;5031053;28;20544;-57
2022/03/12 06:30:28;;;;;;;15.40;8.48;;;;;;;;;;5028752;28;20403;-57
2022/03/12 06:32:55;;;;;;;11.77;7.82;;;;;;;;;;5026894;28;20039;-58
2022/03/12 06:35:22;;;;;;;15.88;8.65;;;;;;;;;;5028330;28;20103;-56
2022/03/12 06:37:49;;;;;;;15.38;8.15;;;;;;;;;;5026356;28;20452;-58
2022/03/12 06:40:15;;;;;;;12.88;8.20;;;;;;;;;;5029480;28;20327;-58
2022/03/12 06:42:45;;;;;;;13.70;8.45;;;;;;;;;;5030326;28;20025;-56
2022/03/12 06:45:15;;;;;;;13.85;8.27;;;;;;;;;;5029778;28;20025;-56
2022/03/12 06:47:42;;;;;;;16.05;8.40;;;;;;;;;;5025496;28;20052;-57
2022/03/12 06:50:09;;;;;;;15.40;8.88;;;;;;;;;;5030286;28;20035;-57
2022/03/12 06:52:36;;;;;;;11.65;7.95;;;;;;;;;;5032536;28;20041;-57
2022/03/12 06:55:02;;;;;;;15.57;8.50;;;;;;;;;;5028634;28;20029;-57
2022/03/12 06:57:28;;;;;;;11.85;8.02;;;;;;;;;;5028925;28;20033;-57
2022/03/12 06:59:54;;;;;;;14.57;8.27;;;;;;;;;;5028786;28;20033;-56
2022/03/12 07:02:20;;;;;;;12.80;8.05;;;;;;;;;;5029477;28;20064;-57
2022/03/12 07:04:46;;;;;;;13.13;8.73;;;;;;;;;;5025750;28;20025;-57
2022/03/12 07:07:12;;;;;;;13.60;8.68;;;;;;;;;;5029081;28;20091;-56
2022/03/12 07:09:38;;;;;;;11.38;8.77;;;;;;;;;;5030205;28;20370;-57
2022/03/12 07:12:04;;;;;;;15.10;10.48;;;;;;;;;;5029147;28;20092;-59
2022/03/12 07:14:31;;;;;;;20.30;14.38;;;;;;;;;;5034482;28;20439;-58
2022/03/12 07:16:57;;;;;;;35.13;20.73;;;;;;;;;;5027161;28;20037;-57
2022/03/12 07:19:24;;;;;;;36.50;24.38;;;;;;;;;;5029442;28;20022;-58
2022/03/12 07:21:50;;;;;;;29.48;19.08;;;;;;;;;;5028149;28;20451;-59
2022/03/12 07:24:17;;;;;;;32.85;19.25;;;;;;;;;;5025148;28;20043;-59
2022/03/12 07:26:44;;;;;;;28.10;17.77;;;;;;;;;;5030981;28;20112;-58
2022/03/12 07:29:10;;;;;;;18.88;13.07;;;;;;;;;;5026103;28;20602;-59
2022/03/12 07:31:37;;;;;;;13.20;8.75;;;;;;;;;;5029192;28;20424;-58
2022/03/12 07:34:03;;;;;;;12.75;9.05;;;;;;;;;;5026796;28;20030;-58
2022/03/12 07:36:30;;;;;;;13.70;8.75;;;;;;;;;;5027456;28;20105;-59
2022/03/12 07:38:58;;;;;;;16.48;8.55;;;;;;;;;;5032381;28;20029;-59
2022/03/12 07:41:24;;;;;;;15.77;8.60;;;;;;;;;;5026977;28;20731;-58
2022/03/12 07:43:50;;;;;;;14.50;8.95;;;;;;;;;;5024329;28;20033;-59
2022/03/12 07:46:16;;;;;;;15.07;8.63;;;;;;;;;;5024617;28;20407;-59
2022/03/12 07:48:42;;;;;;;13.57;8.95;;;;;;;;;;5021121;28;20064;-59
2022/03/12 07:51:09;;;;;;;12.43;8.82;;;;;;;;;;5022925;28;20253;-59
2022/03/12 07:53:36;;;;;;;13.98;8.95;;;;;;;;;;5021103;28;20033;-59
2022/03/12 07:56:03;;;;;;;12.63;8.73;;;;;;;;;;5020289;28;20049;-59
2022/03/12 07:58:29;;;;;;;13.77;8.65;;;;;;;;;;5026911;28;20055;-59
2022/03/12 08:00:56;;;;;;;14.48;8.57;;;;;;;;;;5027316;28;20118;-59
2022/03/12 08:03:23;;;;;;;14.73;8.80;;;;;;;;;;5028876;28;20017;-59
2022/03/12 08:05:49;;;;;;;14.30;8.88;;;;;;;;;;5025241;28;20449;-59
2022/03/12 08:08:15;;;;;;;13.70;8.82;;;;;;;;;;5025971;28;20033;-60
2022/03/12 08:13:26;;;;;;;15.38;8.50;;;;;;;;;;5029530;28;20091;-59
2022/03/12 08:15:52;;;;;;;12.40;9.00;;;;;;;;;;5027929;28;20116;-59
2022/03/12 08:18:18;;;;;;;15.60;9.27;;;;;;;;;;5028206;28;20029;-58
2022/03/12 08:20:44;;;;;;;12.30;8.55;;;;;;;;;;5021992;28;20034;-58
2022/03/12 08:23:10;;;;;;;14.80;8.95;;;;;;;;;;5027350;28;20029;-58
2022/03/12 08:25:37;;;;;;;14.20;8.77;;;;;;;;;;5030196;28;20021;-58
2022/03/12 08:28:03;;;;;;;13.93;9.32;;;;;;;;;;5035132;28;20044;-59
2022/03/12 08:30:29;;;;;;;12.98;8.80;;;;;;;;;;5027369;28;20130;-58
2022/03/12 08:32:55;;;;;;;13.23;8.45;;;;;;;;;;5027603;28;20029;-57
2022/03/12 08:35:22;;;;;;;11.63;8.30;;;;;;;;;;5027396;28;20065;-58
2022/03/12 08:37:48;;;;;;;13.63;7.80;;;;;;;;;;5030636;28;20802;-58
2022/03/12 08:40:14;;;;;;;12.35;8.52;;;;;;;;;;5032082;28;20484;-59
2022/03/12 08:42:41;;;;;;;11.05;8.32;;;;;;;;;;5019843;28;20030;-59
2022/03/12 08:45:10;;;;;;;10.55;8.18;;;;;;;;;;5026493;28;20383;-58
2022/03/12 08:47:36;;;;;;;12.63;8.57;;;;;;;;;;5026871;28;20498;-59
2022/03/12 08:50:02;;;;;;;14.85;8.85;;;;;;;;;;5023883;28;20033;-58
2022/03/12 08:52:28;;;;;;;12.10;8.75;;;;;;;;;;5022273;28;20066;-58
2022/03/12 08:54:54;;;;;;;11.52;8.40;;;;;;;;;;5021163;28;20029;-58
2022/03/12 08:57:20;;;;;;;11.77;8.55;;;;;;;;;;5022408;28;20465;-58
2022/03/12 08:59:47;;;;;;;12.40;8.30;;;;;;;;;;5025479;28;20335;-59
2022/03/12 09:02:13;;;;;;;12.73;8.73;;;;;;;;;;5026764;28;20021;-60
2022/03/12 09:04:39;;;;;;;13.75;9.05;;;;;;;;;;5023335;28;20026;-59
2022/03/12 09:07:05;;;;;;;15.20;9.10;;;;;;;;;;5025792;28;20049;-58
2022/03/12 09:09:32;;;;;;;13.07;8.65;;;;;;;;;;5025550;28;20017;-58
2022/03/12 09:11:58;;;;;;;12.02;8.13;;;;;;;;;;5028590;28;20047;-58
2022/03/12 09:14:24;;;;;;;11.73;8.52;;;;;;;;;;5026326;28;20030;-58
2022/03/12 09:16:50;;;;;;;14.35;8.88;;;;;;;;;;5026666;28;20029;-58
2022/03/12 09:19:16;;;;;;;11.55;8.30;;;;;;;;;;5030614;28;20135;-59
2022/03/12 09:21:42;;;;;;;13.10;9.02;;;;;;;;;;5027666;28;20029;-58
2022/03/12 09:24:11;;;;;;;14.82;9.07;;;;;;;;;;5032418;28;20025;-59
2022/03/12 09:26:37;;;;;;;11.15;8.68;;;;;;;;;;5026203;28;20112;-58
2022/03/12 09:29:03;;;;;;;13.43;8.43;;;;;;;;;;5026898;28;20143;-59
2022/03/12 09:31:29;;;;;;;14.65;8.45;;;;;;;;;;5030445;28;20091;-59
2022/03/12 09:33:55;;;;;;;12.18;8.18;;;;;;;;;;5029293;28;20033;-59
2022/03/12 09:36:21;;;;;;;13.07;8.10;;;;;;;;;;5027717;28;20315;-57
2022/03/12 09:38:47;;;;;;;12.20;7.78;;;;;;;;;;5023092;28;20487;-59
2022/03/12 09:41:13;;;;;;;16.08;8.20;;;;;;;;;;5024285;28;20030;-58
2022/03/12 09:43:41;;;;;;;11.30;8.05;;;;;;;;;;5022566;28;20029;-57
2022/03/12 09:46:07;;;;;;;8.73;6.18;;;;;;;;;;5025816;28;20033;-58
2022/03/12 09:48:33;;;;;;;10.40;6.40;;;;;;;;;;5025108;28;20039;-59
2022/03/12 09:50:59;;;;;;;8.45;5.95;;;;;;;;;;5032065;28;20020;-58
2022/03/12 09:53:25;;;;;;;10.18;6.32;;;;;;;;;;5028790;28;20159;-58
2022/03/12 09:55:51;;;;;;;10.48;6.05;;;;;;;;;;5029717;28;20025;-58
2022/03/12 09:58:18;;;;;;;8.98;6.05;;;;;;;;;;5027345;28;20535;-59
2022/03/12 10:00:44;;;;;;;9.43;6.50;;;;;;;;;;5026559;28;20619;-59
2022/03/12 10:03:11;;;;;;;11.63;6.00;;;;;;;;;;5027064;28;20027;-58
2022/03/12 10:05:36;;;;;;;10.57;6.05;;;;;;;;;;5027741;28;20435;-59
2022/03/12 10:08:02;;;;;;;8.57;6.13;;;;;;;;;;5026064;28;20037;-59
2022/03/12 10:10:29;;;;;;;9.55;5.97;;;;;;;;;;5030107;28;20492;-59
2022/03/12 10:12:55;;;;;;;12.50;5.97;;;;;;;;;;5028795;28;20127;-59
2022/03/12 10:15:21;;;;;;;8.68;6.22;;;;;;;;;;5025729;28;20108;-58
2022/03/12 10:17:47;;;;;;;9.25;6.05;;;;;;;;;;5032370;28;20376;-58
2022/03/12 10:20:14;;;;;;;8.35;5.90;;;;;;;;;;5029525;28;20110;-59
2022/03/12 10:22:40;;;;;;;11.57;6.55;;;;;;;;;;5032796;28;21850;-59
2022/03/12 10:25:07;;;;;;;10.52;6.43;;;;;;;;;;5027557;28;20469;-59
2022/03/12 10:27:33;;;;;;;13.60;6.15;;;;;;;;;;5032051;28;20039;-59
2022/03/12 10:29:59;;;;;;;11.65;5.85;;;;;;;;;;5030395;28;20040;-59
2022/03/12 10:32:29;;;;;;;10.85;6.47;;;;;;;;;;5024269;28;20135;-59
2022/03/12 10:34:56;;;;;;;10.90;5.38;;;;;;;;;;5022982;28;20033;-58
2022/03/12 10:37:33;;;;;;;12.90;6.07;;;;;;;;;;5025855;28;20032;-59
2022/03/12 10:40:06;;;;;;;10.50;5.85;;;;;;;;;;5023647;28;20021;-59
2022/03/12 10:42:32;;;;;;;10.93;6.50;;;;;;;;;;5030994;28;20361;-59
2022/03/12 10:45:11;;;;;;;55.83;35.97;;;;;;;;;;5023989;28;20037;-59
2022/03/12 10:47:48;;;;;;;9.77;5.47;;;;;;;;;;5026123;28;20029;-58
2022/03/12 10:50:15;;;;;;;7.53;5.15;;;;;;;;;;5026126;28;20285;-58
2022/03/12 10:52:47;;;;;;;7.13;5.10;;;;;;;;;;5024037;28;20030;-59
2022/03/12 10:55:18;;;;;;;9.57;5.32;;;;;;;;;;5021515;28;20441;-58
2022/03/12 10:58:17;;;;;;;9.18;4.80;;;;;;;;;;5028257;28;20376;-59
2022/03/12 11:00:47;;;;;;;8.40;4.70;;;;;;;;;;4995401;28;20055;-59
2022/03/12 11:03:20;;;;;;;9.80;4.68;;;;;;;;;;5027753;28;20048;-58
2022/03/12 11:05:47;;;;;;;13.43;5.20;;;;;;;;;;5026593;28;20036;-60
2022/03/12 11:08:16;;;;;;;8.65;4.20;;;;;;;;;;5026795;28;20064;-59
2022/03/12 11:10:47;;;;;;;8.10;3.88;;;;;;;;;;5023205;28;20048;-59
2022/03/12 11:13:24;;;;;;;7.05;3.65;;;;;;;;;;5032763;28;20128;-59
2022/03/12 11:16:03;;;;;;;7.90;3.65;;;;;;;;;;5028880;28;20029;-58
2022/03/12 11:18:29;;;;;;;10.15;3.60;;;;;;;;;;5027406;28;20080;-59
2022/03/12 11:20:55;;;;;;;6.88;3.30;;;;;;;;;;5029733;28;20060;-58
2022/03/12 11:23:27;;;;;;;6.47;3.55;;;;;;;;;;5024985;28;20021;-59
2022/03/12 11:26:04;;;;;;;10.40;3.70;;;;;;;;;;5030371;28;20420;-60
2022/03/12 11:28:31;;;;;;;9.05;3.75;;;;;;;;;;5023591;28;20518;-59
2022/03/12 11:30:57;;;;;;;7.53;3.40;;;;;;;;;;5025946;28;20032;-60
2022/03/12 11:33:25;;;;;;;10.95;3.35;;;;;;;;;;5024268;28;20017;-59
2022/03/12 11:35:58;;;;;;;8.13;3.50;;;;;;;;;;5016714;28;20048;-60
2022/03/12 11:38:24;;;;;;;7.88;3.13;;;;;;;;;;5021194;28;20504;-59
2022/03/12 11:40:51;;;;;;;5.60;2.95;;;;;;;;;;5021432;28;20107;-60
2022/03/12 11:43:26;;;;;;;9.07;3.22;;;;;;;;;;5021645;28;20044;-58
2022/03/12 11:45:54;;;;;;;7.82;2.80;;;;;;;;;;5024375;28;20017;-59
2022/03/12 11:48:20;;;;;;;10.15;2.83;;;;;;;;;;5023943;28;20036;-58
2022/03/12 11:50:46;;;;;;;7.20;2.72;;;;;;;;;;5026156;28;20055;-59
2022/03/12 11:53:16;;;;;;;6.18;2.42;;;;;;;;;;5022235;28;20033;-60
2022/03/12 11:55:43;;;;;;;7.43;2.70;;;;;;;;;;5027273;28;20358;-58
2022/03/12 11:58:10;;;;;;;9.32;2.50;;;;;;;;;;5023354;28;20091;-58
2022/03/12 12:00:36;;;;;;;9.13;3.17;;;;;;;;;;5024174;28;20561;-58
2022/03/12 12:03:02;;;;;;;8.15;2.67;;;;;;;;;;5025129;28;20473;-59
2022/03/12 12:05:29;;;;;;;7.30;2.55;;;;;;;;;;5023047;28;20032;-59
2022/03/12 12:07:55;;;;;;;7.32;2.35;;;;;;;;;;5024201;28;20017;-58
2022/03/12 12:10:32;;;;;;;5.90;2.42;;;;;;;;;;5022587;28;20025;-58
2022/03/12 12:12:58;;;;;;;6.70;2.70;;;;;;;;;;5031426;28;20033;-59
2022/03/12 12:15:34;;;;;;;9.00;2.30;;;;;;;;;;5025193;28;20040;-59
2022/03/12 12:18:02;;;;;;;7.78;2.72;;;;;;;;;;5023712;28;20169;-57
2022/03/12 12:20:30;;;;;;;7.35;2.53;;;;;;;;;;5025468;28;20415;-58
2022/03/12 12:22:57;;;;;;;7.57;2.97;;;;;;;;;;5024672;28;20128;-59
2022/03/12 12:25:25;;;;;;;15.68;3.30;;;;;;;;;;5027538;28;20811;-59
2022/03/12 12:27:52;;;;;;;7.72;2.30;;;;;;;;;;5029370;28;20041;-59
2022/03/12 12:30:40;;;;;;;7.88;2.53;;;;;;;;;;5031131;28;20124;-59
2022/03/12 12:33:22;;;;;;;8.52;2.63;;;;;;;;;;5028632;28;20495;-59
2022/03/12 12:35:52;;;;;;;17.63;8.87;;;;;;;;;;5023926;28;20120;-58
2022/03/12 12:38:20;;;;;;;8.77;4.43;;;;;;;;;;5035075;28;20025;-58
2022/03/12 12:40:53;;;;;;;20.52;4.10;;;;;;;;;;5033312;28;20030;-58
2022/03/12 12:43:20;;;;;;;21.05;4.00;;;;;;;;;;5029078;28;20075;-57
2022/03/12 12:45:46;;;;;;;9.02;3.10;;;;;;;;;;5035615;28;20060;-58
2022/03/12 12:48:20;;;;;;;10.93;3.47;;;;;;;;;;5033276;28;20056;-57
2022/03/12 12:50:58;;;;;;;8.80;3.20;;;;;;;;;;5035553;28;20491;-58
2022/03/12 12:53:31;;;;;;;6.97;2.90;;;;;;;;;;5028182;28;20113;-57
2022/03/12 12:56:17;;;;;;;12.50;3.20;;;;;;;;;;5030122;28;20037;-56
2022/03/12 12:58:52;;;;;;;6.88;3.50;;;;;;;;;;5033210;28;20551;-57
2022/03/12 13:01:22;;;;;;;8.48;3.17;;;;;;;;;;5028889;28;20040;-56
2022/03/12 13:03:53;;;;;;;7.50;3.00;;;;;;;;;;5032536;28;20020;-59
2022/03/12 13:06:40;;;;;;;9.23;4.07;;;;;;;;;;5026278;28;20040;-59
2022/03/12 13:09:10;;;;;;;8.70;4.15;;;;;;;;;;5028845;28;20468;-59
2022/03/12 13:11:40;;;;;;;19.25;11.75;;;;;;;;;;5031871;28;20133;-58
2022/03/12 13:14:26;;;;;;;6.93;3.95;;;;;;;;;;5029712;28;20435;-58
2022/03/12 13:17:03;;;;;;;16.60;11.43;;;;;;;;;;5030917;28;20544;-59
2022/03/12 13:19:33;;;;;;;15.60;10.05;;;;;;;;;;5030535;28;20021;-58
2022/03/12 13:22:20;;;;;;;16.70;10.27;;;;;;;;;;5033144;28;20033;-59
2022/03/12 13:24:46;;;;;;;7.80;4.93;;;;;;;;;;5041117;28;20033;-59
2022/03/12 13:27:16;;;;;;;7.65;4.20;;;;;;;;;;5029706;28;20683;-59
2022/03/12 13:29:42;;;;;;;8.82;4.75;;;;;;;;;;5028517;28;20136;-59
2022/03/12 13:32:17;;;;;;;8.80;5.28;;;;;;;;;;5032288;28;20025;-59
2022/03/12 13:34:43;;;;;;;6.20;4.28;;;;;;;;;;5032023;28;20788;-59
2022/03/12 13:37:12;;;;;;;7.70;4.78;;;;;;;;;;5034490;28;20664;-59
2022/03/12 13:39:38;;;;;;;9.95;4.50;;;;;;;;;;5027558;28;20043;-59
2022/03/12 13:42:04;;;;;;;6.53;4.32;;;;;;;;;;5033843;28;20034;-59
2022/03/12 13:44:29;;;;;;;7.43;4.70;;;;;;;;;;5026766;28;20092;-59
2022/03/12 13:46:56;;;;;;;7.57;4.68;;;;;;;;;;5031066;28;20037;-58
2022/03/12 13:49:22;;;;;;;11.15;4.85;;;;;;;;;;5022705;28;20036;-59
2022/03/12 13:51:51;;;;;;;7.13;5.10;;;;;;;;;;5029807;28;20034;-58
2022/03/12 13:54:17;;;;;;;7.65;4.90;;;;;;;;;;5031524;28;20809;-58
2022/03/12 13:56:45;;;;;;;7.10;5.40;;;;;;;;;;5024920;28;20021;-58
2022/03/12 13:59:13;;;;;;;9.15;5.53;;;;;;;;;;5023029;28;20021;-57
2022/03/12 14:01:44;;;;;;;7.85;5.80;;;;;;;;;;5027185;28;20029;-58
2022/03/12 14:04:17;;;;;;;8.82;5.68;;;;;;;;;;5027026;28;20022;-58
2022/03/12 14:06:46;;;;;;;9.65;5.03;;;;;;;;;;5026550;28;20124;-57
2022/03/12 14:09:13;;;;;;;8.75;4.65;;;;;;;;;;5028511;28;20969;-58
2022/03/12 14:11:43;;;;;;;8.40;4.75;;;;;;;;;;5024610;28;20056;-58
2022/03/12 14:14:12;;;;;;;6.25;4.50;;;;;;;;;;5024139;28;20193;-59
2022/03/12 14:16:45;;;;;;;6.10;4.63;;;;;;;;;;5031731;28;20045;-59
2022/03/12 14:19:11;;;;;;;8.38;5.00;;;;;;;;;;5024223;28;20112;-58
2022/03/12 14:21:40;;;;;;;7.88;5.15;;;;;;;;;;5025784;28;20033;-58
2022/03/12 14:24:28;;;;;;;7.60;5.30;;;;;;;;;;5022944;28;20048;-59
2022/03/12 14:27:12;;;;;;;19.70;14.88;;;;;;;;;;5032518;28;20036;-58
2022/03/12 14:29:45;;;;;;;6.65;4.97;;;;;;;;;;5025023;28;20017;-58
2022/03/12 14:32:12;;;;;;;7.32;5.15;;;;;;;;;;5029715;28;20028;-58
2022/03/12 14:34:40;;;;;;;7.68;4.50;;;;;;;;;;5025020;28;20875;-59
2022/03/12 14:37:07;;;;;;;7.60;4.63;;;;;;;;;;5025682;28;20402;-58
2022/03/12 14:39:33;;;;;;;7.47;4.80;;;;;;;;;;5025664;28;20021;-58